Airfield :
LOGIN :

Register | Disclaimer

   EN    FR    IT 

 










Legend :    VFR   Marginal VFR   IFR   Intensive IFR   Very Intensive IFR
Visi :
Ceiling :
>= 8 km
>= 3000ft
5 to 8 km
1000 to 3000 ft
1500m to 5 km
500 to 1000 ft
800 to 1500m
200 to 500 ft
< 800m
< 200 ft
Symbols :   Thunderstorms  Fog  Heavy snow  Heavy precipitations  Wind > 20 kt
SIGMETs :     Misc.  Thunderstorms  Icing  Turbulence  Mountain Waves  Volcanic Ashes






- Airport Elevation : 12 ft
- IATA code : NCE


LFMN - Nice

CURRENT METAR :
  • 041930Z AUTO 09008KT CAVOK 25/19 Q1016 NOSIG

EXPIRED METARs :
  • 041900Z AUTO 08008KT CAVOK 26/20 Q1016 NOSIG
  • 041830Z AUTO 09005KT CAVOK 26/19 Q1016 NOSIG
  • 041800Z AUTO 10006KT CAVOK 26/19 Q1016 NOSIG
  • 041730Z AUTO 12004KT CAVOK 27/19 Q1016 NOSIG
  • 041700Z AUTO 17005KT CAVOK 27/19 Q1016 NOSIG

TAF TAF LFMN
Valid from the 04 at 15:00 until the 05 at 21:00 UTC


041400Z 0415/0521 20010KT CAVOK
BECMG 0416/0418 VRB05KT
BECMG 0507/0509 12010KT
BECMG 0517/0519 VRB05KT
ATIS : +33 4 93 17 21 16



MET'MAP, your aeronautical weather chart ! - Copyright ORBIFLY December 2007 - Disclaimer

ORBIFLY MET'MAP TEAM :

Programming & Development : Alexandra Zaïnal
Concept & original design : Baudouin d'Aumeries
Assistance for programming : Marc-Olivier Méhu
Technical & hardware support : Manuel Goepfert

Contact : metmap@orbifly.com




SOURCES & CREDITS :

   NOAA